Time;durP1;ratioP1;P1;durP2;ratioP2;P2;SDS_P1;SDS_P2;PMS_P1;PMS_P2;Temp;Humidity;BMP_temperature;BMP_pressure;BME280_temperature;BME280_humidity;BME280_pressure;Samples;Min_cycle;Max_cycle;Signal;HPM_P1;HPM_P2
2023/07/07 00:01:03;;;;;;;8.57;4.55;;;13.40;99.90;;;;;;4992392;28;20042;-74
2023/07/07 00:03:29;;;;;;;8.23;4.57;;;13.40;99.90;;;;;;4975100;28;20050;-74
2023/07/07 00:05:55;;;;;;;11.68;5.00;;;13.40;99.90;;;;;;4974635;28;20060;-74
2023/07/07 00:08:20;;;;;;;9.20;4.20;;;13.40;99.90;;;;;;4974682;28;20077;-74
2023/07/07 00:10:46;;;;;;;8.50;4.63;;;13.30;99.90;;;;;;4974713;28;20045;-74
2023/07/07 00:13:14;;;;;;;9.82;4.70;;;13.30;99.90;;;;;;4975020;28;20038;-74
2023/07/07 00:15:44;;;;;;;9.50;4.80;;;13.30;99.90;;;;;;4992159;28;20042;-74
2023/07/07 00:18:12;;;;;;;8.43;5.15;;;13.20;99.90;;;;;;4974709;28;20050;-74
2023/07/07 00:20:37;;;;;;;8.90;4.38;;;13.10;99.90;;;;;;4992148;28;20038;-74
2023/07/07 00:23:03;;;;;;;9.40;4.57;;;13.10;99.90;;;;;;4992147;28;20122;-74
2023/07/07 00:25:28;;;;;;;10.88;4.90;;;13.00;99.90;;;;;;4974389;28;20539;-74
2023/07/07 00:27:54;;;;;;;8.18;4.60;;;13.10;99.90;;;;;;4992085;28;20380;-74
2023/07/07 00:30:20;;;;;;;8.23;4.43;;;13.10;99.90;;;;;;4974494;28;20053;-74
2023/07/07 00:32:46;;;;;;;10.55;4.80;;;13.00;99.90;;;;;;4991845;28;20061;-74
2023/07/07 00:35:11;;;;;;;8.85;4.50;;;12.90;99.90;;;;;;4974536;28;20050;-74
2023/07/07 00:37:37;;;;;;;8.77;4.53;;;12.90;99.90;;;;;;4974319;28;20049;-74
2023/07/07 00:40:03;;;;;;;9.73;4.72;;;12.80;99.90;;;;;;4991779;28;20068;-74
2023/07/07 00:42:30;;;;;;;8.35;4.93;;;12.80;99.90;;;;;;4974445;28;20078;-74
2023/07/07 00:45:04;;;;;;;7.95;4.70;;;12.80;99.90;;;;;;4974310;28;20125;-74
2023/07/07 00:47:31;;;;;;;9.73;4.20;;;12.70;99.90;;;;;;4974188;28;20492;-74
2023/07/07 00:49:57;;;;;;;6.70;4.43;;;12.70;99.90;;;;;;4974086;28;20042;-74
2023/07/07 00:52:23;;;;;;;7.95;4.60;;;12.70;99.90;;;;;;4991485;28;20054;-74
2023/07/07 00:54:48;;;;;;;8.65;4.40;;;12.60;99.90;;;;;;4991575;28;20393;-74
2023/07/07 00:57:14;;;;;;;7.63;4.63;;;12.60;99.90;;;;;;4974103;28;20074;-74
2023/07/07 00:59:43;;;;;;;8.82;5.47;;;12.60;99.90;;;;;;4991530;28;20046;-74
2023/07/07 01:02:24;;;;;;;10.70;5.60;;;12.60;99.90;;;;;;4991222;28;20108;-74
2023/07/07 01:04:57;;;;;;;8.02;4.60;;;12.60;99.90;;;;;;4974329;28;20111;-74
2023/07/07 01:07:28;;;;;;;8.68;5.40;;;12.50;99.90;;;;;;4974094;28;20487;-74
2023/07/07 01:09:53;;;;;;;8.57;4.68;;;12.50;99.90;;;;;;4991489;28;20052;-74
2023/07/07 01:12:19;;;;;;;10.32;5.45;;;12.50;99.90;;;;;;4973966;28;20125;-74
2023/07/07 01:14:47;;;;;;;7.82;4.50;;;12.50;99.90;;;;;;4973728;28;20038;-74
2023/07/07 01:17:17;;;;;;;9.98;4.82;;;12.50;99.90;;;;;;4974206;28;20054;-74
2023/07/07 01:20:27;;;;;;;11.48;5.68;;;12.40;99.90;;;;;;4973805;28;20125;-74
2023/07/07 01:22:58;;;;;;;9.88;4.60;;;12.50;99.90;;;;;;4974225;28;20050;-74
2023/07/07 01:25:59;;;;;;;9.50;4.45;;;12.50;99.90;;;;;;4973444;28;20137;-74
2023/07/07 01:28:54;;;;;;;10.73;4.78;;;12.50;99.90;;;;;;4973975;28;20371;-74
2023/07/07 01:31:32;;;;;;;8.93;4.93;;;12.40;99.90;;;;;;4991189;28;20558;-74
2023/07/07 01:33:59;;;;;;;8.40;4.68;;;12.40;99.90;;;;;;4991139;28;20050;-74
2023/07/07 01:36:25;;;;;;;10.38;5.45;;;12.40;99.90;;;;;;4973813;28;20483;-74
2023/07/07 01:38:51;;;;;;;8.65;4.60;;;12.40;99.90;;;;;;4973646;28;20046;-74
2023/07/07 01:41:42;;;;;;;10.32;5.95;;;12.40;99.90;;;;;;4973625;28;20055;-73
2023/07/07 01:44:23;;;;;;;10.13;4.97;;;12.40;99.90;;;;;;4991289;28;20050;-74
2023/07/07 01:46:59;;;;;;;10.77;5.40;;;12.40;99.90;;;;;;4973541;28;20049;-74
2023/07/07 01:49:41;;;;;;;10.15;5.15;;;12.40;99.90;;;;;;4973589;28;20117;-74
2023/07/07 01:52:16;;;;;;;11.38;5.53;;;12.30;99.90;;;;;;4973413;28;20058;-74
2023/07/07 01:55:03;;;;;;;12.45;6.03;;;12.30;99.90;;;;;;4973731;28;20133;-74
2023/07/07 01:57:31;;;;;;;11.40;5.63;;;12.30;99.90;;;;;;4974036;28;20066;-74
2023/07/07 01:59:57;;;;;;;10.57;5.93;;;12.30;99.90;;;;;;4994409;28;20046;-74
2023/07/07 02:02:25;;;;;;;10.38;5.78;;;12.20;99.90;;;;;;4976847;28;20490;-74
2023/07/07 02:04:50;;;;;;;11.30;5.68;;;12.20;99.90;;;;;;4994095;28;20129;-74
2023/07/07 02:07:16;;;;;;;11.15;5.72;;;12.20;99.90;;;;;;4994127;28;20129;-74
2023/07/07 02:09:42;;;;;;;9.60;5.97;;;12.20;99.90;;;;;;4976704;28;20050;-74
2023/07/07 02:12:08;;;;;;;12.45;6.28;;;12.10;99.90;;;;;;4994122;28;20082;-74
2023/07/07 02:14:33;;;;;;;13.40;6.13;;;12.10;99.90;;;;;;4977014;28;20513;-74
2023/07/07 02:16:59;;;;;;;11.73;6.65;;;12.10;99.90;;;;;;4976533;28;20046;-74
2023/07/07 02:19:24;;;;;;;10.65;6.90;;;12.10;99.90;;;;;;4976680;28;20124;-74
2023/07/07 02:21:51;;;;;;;10.80;5.55;;;12.10;99.90;;;;;;4993970;28;20038;-74
2023/07/07 02:24:16;;;;;;;12.82;7.13;;;12.10;99.90;;;;;;4976239;28;20144;-74
2023/07/07 02:26:43;;;;;;;8.48;5.88;;;12.10;99.90;;;;;;4976399;28;20137;-74
2023/07/07 02:29:08;;;;;;;12.52;6.45;;;12.10;99.90;;;;;;4976200;28;20054;-74
2023/07/07 02:31:34;;;;;;;12.07;6.65;;;12.00;99.90;;;;;;4976305;28;20133;-74
2023/07/07 02:33:59;;;;;;;10.10;6.15;;;12.00;99.90;;;;;;4976224;28;20042;-74
2023/07/07 02:36:25;;;;;;;12.20;6.65;;;11.90;99.90;;;;;;4976416;28;20050;-74
2023/07/07 02:38:53;;;;;;;10.52;7.15;;;11.90;99.90;;;;;;4976216;28;20401;-74
2023/07/07 02:41:20;;;;;;;12.10;6.80;;;11.90;99.90;;;;;;4993606;28;20046;-74
2023/07/07 02:43:45;;;;;;;11.38;6.78;;;11.90;99.90;;;;;;4976131;28;20096;-74
2023/07/07 02:46:11;;;;;;;10.23;6.40;;;11.90;99.90;;;;;;4993284;28;20046;-74
2023/07/07 02:48:37;;;;;;;11.23;6.72;;;11.90;99.90;;;;;;4975925;28;20046;-74
2023/07/07 02:51:05;;;;;;;12.23;6.18;;;11.90;99.90;;;;;;4993388;28;20042;-74
2023/07/07 02:53:33;;;;;;;11.07;6.70;;;11.90;99.90;;;;;;4993278;28;20481;-74
2023/07/07 02:55:59;;;;;;;10.20;6.22;;;11.80;99.90;;;;;;4976202;28;20058;-74
2023/07/07 02:58:25;;;;;;;12.70;6.32;;;11.80;99.90;;;;;;4993329;28;20099;-74
2023/07/07 03:00:51;;;;;;;14.98;6.97;;;11.70;99.90;;;;;;4993027;28;20406;-74
2023/07/07 03:03:18;;;;;;;13.63;6.95;;;11.60;99.90;;;;;;4975737;28;20402;-74
2023/07/07 03:05:44;;;;;;;12.68;5.88;;;11.60;99.90;;;;;;4975765;28;20058;-74
2023/07/07 03:08:10;;;;;;;10.90;5.53;;;11.50;99.90;;;;;;4975472;28;20046;-74
2023/07/07 03:10:38;;;;;;;12.15;5.30;;;11.50;99.90;;;;;;4992456;28;20532;-74
2023/07/07 03:13:04;;;;;;;10.38;5.20;;;11.50;99.90;;;;;;4974915;28;20375;-74
2023/07/07 03:15:38;;;;;;;10.05;5.57;;;11.40;99.90;;;;;;4974089;28;20538;-74
2023/07/07 03:18:09;;;;;;;13.43;6.45;;;11.40;99.90;;;;;;4975325;28;20382;-75
2023/07/07 03:20:35;;;;;;;9.30;5.80;;;11.40;99.90;;;;;;4992946;28;20047;-74
2023/07/07 03:23:02;;;;;;;11.98;6.80;;;11.40;99.90;;;;;;4975667;28;20146;-75
2023/07/07 03:25:30;;;;;;;12.05;5.75;;;11.40;99.90;;;;;;4975117;28;20062;-74
2023/07/07 03:27:57;;;;;;;10.50;5.40;;;11.40;99.90;;;;;;4975182;28;20200;-74
2023/07/07 03:30:23;;;;;;;11.10;5.47;;;11.30;99.90;;;;;;4974991;28;20042;-74
2023/07/07 03:32:48;;;;;;;10.40;5.72;;;11.20;99.90;;;;;;4975492;28;20061;-74
2023/07/07 03:35:14;;;;;;;13.75;6.30;;;11.20;99.90;;;;;;4975440;28;20129;-74
2023/07/07 03:37:40;;;;;;;11.77;5.45;;;11.20;99.90;;;;;;4975093;28;20050;-74
2023/07/07 03:40:06;;;;;;;10.55;6.10;;;11.20;99.90;;;;;;4975356;28;20053;-74
2023/07/07 03:42:33;;;;;;;11.85;5.95;;;11.20;99.90;;;;;;4992694;28;20046;-74
2023/07/07 03:44:59;;;;;;;11.25;5.60;;;11.20;99.90;;;;;;4974937;28;20471;-74
2023/07/07 03:47:25;;;;;;;11.85;6.22;;;11.20;99.90;;;;;;4975085;28;20057;-74
2023/07/07 03:49:51;;;;;;;13.63;7.15;;;11.20;99.90;;;;;;4992314;28;20466;-74
2023/07/07 03:52:17;;;;;;;19.25;7.93;;;11.20;99.90;;;;;;4992323;28;20100;-74
2023/07/07 03:54:43;;;;;;;15.27;8.77;;;11.30;99.90;;;;;;4992466;28;20134;-74
2023/07/07 03:57:10;;;;;;;15.68;9.73;;;11.40;99.90;;;;;;4974834;28;20554;-74
2023/07/07 03:59:37;;;;;;;16.48;9.23;;;11.50;99.90;;;;;;4974991;28;20130;-74
2023/07/07 04:02:03;;;;;;;16.25;9.00;;;11.60;99.90;;;;;;4974620;28;20406;-74
2023/07/07 04:04:29;;;;;;;17.83;9.90;;;11.60;99.90;;;;;;4974692;28;20436;-74
2023/07/07 04:06:56;;;;;;;17.55;8.60;;;11.70;99.90;;;;;;4958840;28;20038;-74
2023/07/07 04:09:22;;;;;;;17.73;10.07;;;11.70;99.90;;;;;;4991891;28;20042;-74
2023/07/07 04:11:48;;;;;;;16.23;9.57;;;11.80;99.90;;;;;;4974553;28;20068;-74
2023/07/07 04:14:13;;;;;;;14.43;8.68;;;11.80;99.90;;;;;;4974495;28;20046;-74
2023/07/07 04:16:39;;;;;;;15.55;9.75;;;11.90;99.90;;;;;;4974522;28;20038;-74
2023/07/07 04:19:05;;;;;;;19.80;9.98;;;12.00;99.90;;;;;;4974736;28;20046;-75
2023/07/07 04:21:31;;;;;;;18.42;9.75;;;12.00;99.90;;;;;;4973692;28;20508;-74
2023/07/07 04:24:00;;;;;;;16.98;10.45;;;12.10;99.90;;;;;;4974392;28;20100;-75
2023/07/07 04:26:29;;;;;;;18.10;11.45;;;12.20;99.90;;;;;;4974507;28;20062;-74
2023/07/07 04:28:57;;;;;;;15.52;11.10;;;12.30;99.90;;;;;;4992198;28;20046;-74
2023/07/07 04:31:24;;;;;;;19.20;11.30;;;12.40;99.90;;;;;;4974301;28;20081;-74
2023/07/07 04:33:50;;;;;;;17.58;11.63;;;12.50;99.90;;;;;;4974456;28;20371;-74
2023/07/07 04:36:16;;;;;;;20.60;12.27;;;12.60;99.90;;;;;;4974454;28;20054;-74
2023/07/07 04:38:42;;;;;;;21.52;13.07;;;12.70;99.90;;;;;;4974084;28;20570;-74
2023/07/07 04:41:12;;;;;;;24.38;12.25;;;12.80;99.90;;;;;;4974336;28;20064;-74
2023/07/07 04:43:44;;;;;;;18.05;11.82;;;12.90;99.90;;;;;;4974341;28;20424;-74
2023/07/07 04:46:12;;;;;;;20.03;13.67;;;13.00;99.90;;;;;;4974297;28;20074;-74
2023/07/07 04:48:39;;;;;;;21.67;13.60;;;13.10;99.90;;;;;;4991563;28;20282;-74
2023/07/07 04:51:07;;;;;;;22.05;13.35;;;13.20;99.90;;;;;;4991484;28;20095;-74
2023/07/07 04:53:34;;;;;;;21.80;14.35;;;13.30;99.90;;;;;;4973911;28;20042;-74
2023/07/07 04:56:01;;;;;;;27.55;14.45;;;13.40;99.90;;;;;;4973824;28;20046;-74
2023/07/07 04:58:28;;;;;;;24.40;13.90;;;13.60;99.90;;;;;;4973872;28;20125;-74
2023/07/07 05:01:05;;;;;;;25.25;15.25;;;13.60;99.90;;;;;;4991435;28;20042;-74
2023/07/07 05:03:31;;;;;;;22.65;15.60;;;13.80;99.90;;;;;;4974226;28;20043;-74
2023/07/07 05:05:57;;;;;;;25.45;15.43;;;13.90;99.90;;;;;;4973777;28;20390;-74
2023/07/07 05:08:23;;;;;;;22.80;15.30;;;14.00;99.90;;;;;;4974267;28;20046;-74
2023/07/07 05:10:49;;;;;;;23.30;15.63;;;14.10;99.90;;;;;;4991324;28;20426;-74
2023/07/07 05:13:14;;;;;;;24.45;15.15;;;14.30;99.90;;;;;;4974047;28;20042;-74
2023/07/07 05:15:40;;;;;;;26.83;16.50;;;14.30;99.90;;;;;;4991294;28;20112;-74
2023/07/07 05:18:07;;;;;;;27.35;16.73;;;14.50;99.90;;;;;;4973534;28;20047;-74
2023/07/07 05:20:33;;;;;;;27.20;15.60;;;14.60;99.90;;;;;;4991247;28;20038;-74
2023/07/07 05:22:58;;;;;;;23.48;15.52;;;14.60;99.90;;;;;;4973737;28;20099;-74
2023/07/07 05:25:24;;;;;;;20.27;16.10;;;14.80;99.90;;;;;;4991025;28;20055;-74
2023/07/07 05:27:50;;;;;;;24.10;15.63;;;14.80;99.90;;;;;;4973611;28;20453;-74
2023/07/07 05:30:16;;;;;;;21.77;15.57;;;15.00;99.90;;;;;;4973671;28;20047;-74
2023/07/07 05:32:41;;;;;;;25.38;16.35;;;15.10;99.90;;;;;;4975806;28;20119;-74
2023/07/07 05:35:07;;;;;;;25.55;15.60;;;15.20;99.90;;;;;;4976974;28;20129;-74
2023/07/07 05:37:33;;;;;;;20.95;15.95;;;15.30;99.90;;;;;;4977164;28;20055;-74
2023/07/07 05:39:58;;;;;;;21.15;15.10;;;15.40;99.90;;;;;;4977212;28;20035;-74
2023/07/07 05:42:24;;;;;;;23.55;15.25;;;15.50;99.90;;;;;;4976906;28;20443;-74
2023/07/07 05:44:51;;;;;;;25.02;14.55;;;15.60;99.90;;;;;;4994284;28;20078;-74
2023/07/07 05:47:16;;;;;;;22.98;14.60;;;15.80;99.90;;;;;;4976755;28;20057;-74
2023/07/07 05:49:42;;;;;;;19.95;14.82;;;16.00;99.90;;;;;;4994520;28;20042;-74
2023/07/07 05:52:08;;;;;;;20.50;14.30;;;16.10;99.90;;;;;;4976647;28;20069;-74
2023/07/07 05:54:34;;;;;;;23.13;13.75;;;16.20;99.90;;;;;;4977316;28;20054;-74
2023/07/07 05:57:01;;;;;;;19.95;13.82;;;16.50;99.90;;;;;;4994310;28;20469;-74
2023/07/07 05:59:27;;;;;;;19.67;13.73;;;16.60;99.90;;;;;;4976892;28;20054;-74
2023/07/07 06:01:53;;;;;;;18.38;11.80;;;16.80;99.90;;;;;;4993786;28;20058;-74
2023/07/07 06:04:18;;;;;;;18.05;11.70;;;17.00;99.90;;;;;;4994037;28;20172;-74
2023/07/07 06:06:44;;;;;;;17.20;10.93;;;17.20;99.90;;;;;;4976572;28;20073;-74
2023/07/07 06:09:09;;;;;;;16.98;11.70;;;17.40;99.90;;;;;;4976601;28;20133;-74
2023/07/07 06:11:35;;;;;;;21.65;12.18;;;17.50;99.90;;;;;;4994690;28;20046;-74
2023/07/07 06:14:01;;;;;;;17.45;11.30;;;17.70;99.90;;;;;;4996127;28;20038;-74
2023/07/07 06:16:26;;;;;;;16.02;10.60;;;17.90;99.90;;;;;;4995812;28;20477;-74
2023/07/07 06:18:52;;;;;;;16.42;10.70;;;18.00;99.90;;;;;;5013639;28;20046;-74
2023/07/07 06:21:18;;;;;;;14.20;10.32;;;18.20;99.90;;;;;;4996076;28;20046;-74
2023/07/07 06:23:43;;;;;;;18.80;10.25;;;18.30;99.90;;;;;;5013540;28;20046;-74
2023/07/07 06:26:10;;;;;;;13.77;9.65;;;18.30;99.90;;;;;;5013040;28;20063;-74
2023/07/07 06:28:35;;;;;;;15.13;9.85;;;18.50;99.90;;;;;;5013251;28;20053;-74
2023/07/07 06:31:01;;;;;;;16.88;10.32;;;18.70;99.90;;;;;;4995581;28;20049;-74
2023/07/07 06:33:27;;;;;;;17.08;11.07;;;18.90;99.90;;;;;;5013273;28;20050;-74
2023/07/07 06:35:53;;;;;;;13.48;9.63;;;18.90;99.90;;;;;;4995594;28;20091;-74
2023/07/07 06:38:18;;;;;;;13.65;8.88;;;19.00;99.90;;;;;;4995812;28;20050;-74
2023/07/07 06:40:46;;;;;;;16.05;8.93;;;19.20;99.90;;;;;;4988486;28;20378;-73
2023/07/07 06:43:12;;;;;;;13.02;9.82;;;19.30;99.90;;;;;;4978534;28;20107;-73
2023/07/07 06:45:38;;;;;;;12.02;8.88;;;19.50;99.90;;;;;;4993005;28;20049;-74
2023/07/07 06:48:04;;;;;;;13.23;9.60;;;19.50;99.90;;;;;;4975785;28;20393;-74
2023/07/07 06:50:34;;;;;;;13.43;8.70;;;19.70;99.90;;;;;;4975595;28;20413;-74
2023/07/07 06:52:59;;;;;;;11.88;8.52;;;19.80;99.90;;;;;;4975771;28;20124;-74
2023/07/07 06:55:25;;;;;;;12.23;8.52;;;19.90;99.90;;;;;;4975639;28;20096;-74
2023/07/07 06:57:51;;;;;;;13.25;8.65;;;20.10;99.90;;;;;;4993119;28;20050;-74
2023/07/07 07:00:17;;;;;;;11.70;8.98;;;20.30;99.90;;;;;;4993035;28;20043;-74
2023/07/07 07:02:44;;;;;;;12.30;8.48;;;20.40;99.90;;;;;;4975449;28;20042;-74
2023/07/07 07:05:09;;;;;;;12.95;8.15;;;20.30;99.90;;;;;;4975517;28;20050;-74
2023/07/07 07:07:35;;;;;;;12.90;8.10;;;20.50;99.90;;;;;;4975720;28;20047;-74
2023/07/07 07:10:02;;;;;;;12.57;7.63;;;20.60;99.90;;;;;;4975403;28;20410;-74
2023/07/07 07:12:29;;;;;;;10.68;6.85;;;20.70;99.90;;;;;;4975687;28;20054;-74
2023/07/07 07:14:55;;;;;;;14.65;7.32;;;20.80;99.90;;;;;;4992670;28;20421;-74
2023/07/07 07:17:25;;;;;;;10.18;6.53;;;20.90;99.90;;;;;;4992610;28;20038;-74
2023/07/07 07:19:51;;;;;;;12.38;7.13;;;21.10;99.90;;;;;;4975472;28;20081;-73
2023/07/07 07:22:16;;;;;;;12.02;6.78;;;21.30;99.90;;;;;;4975774;28;20465;-73
2023/07/07 07:24:43;;;;;;;11.38;7.20;;;21.30;99.90;;;;;;4975008;28;20062;-73
2023/07/07 07:27:11;;;;;;;11.98;7.00;;;21.50;99.90;;;;;;4975110;28;20050;-74
2023/07/07 07:29:37;;;;;;;9.63;5.97;;;21.60;99.90;;;;;;4992395;28;20077;-73
2023/07/07 07:32:03;;;;;;;9.65;6.95;;;21.80;99.90;;;;;;4975114;28;20137;-74
2023/07/07 07:34:32;;;;;;;10.48;6.53;;;21.70;99.90;;;;;;4992626;28;20390;-74
2023/07/07 07:37:00;;;;;;;9.40;6.45;;;21.80;99.90;;;;;;4975189;28;20061;-74
2023/07/07 07:39:27;;;;;;;10.48;6.88;;;21.90;99.90;;;;;;4992293;28;20466;-74
2023/07/07 07:41:54;;;;;;;9.10;6.25;;;22.10;99.90;;;;;;4975044;28;20047;-74
2023/07/07 07:44:22;;;;;;;11.85;6.68;;;22.30;99.90;;;;;;4992561;28;20053;-74
2023/07/07 07:46:51;;;;;;;10.48;6.40;;;22.30;99.90;;;;;;4992410;28;20069;-74
2023/07/07 07:49:17;;;;;;;11.77;6.65;;;22.40;99.90;;;;;;4994390;28;20417;-74
2023/07/07 07:51:43;;;;;;;9.82;6.97;;;22.50;99.90;;;;;;4994266;28;20061;-74
2023/07/07 07:54:11;;;;;;;12.68;7.53;;;22.60;99.90;;;;;;4994389;28;20049;-74
2023/07/07 07:56:38;;;;;;;8.60;6.13;;;22.50;99.90;;;;;;4993227;28;20497;-74
2023/07/07 07:59:05;;;;;;;10.98;7.00;;;22.60;99.90;;;;;;4993915;28;20042;-74
2023/07/07 08:01:31;;;;;;;9.73;6.28;;;22.70;99.90;;;;;;5011820;28;20057;-74
2023/07/07 08:03:56;;;;;;;9.65;5.95;;;22.80;99.90;;;;;;4994221;28;20045;-74
2023/07/07 08:06:22;;;;;;;10.43;5.80;;;22.90;99.90;;;;;;5011859;28;20520;-74
2023/07/07 08:08:48;;;;;;;9.15;5.25;;;22.90;99.90;;;;;;4994143;28;20145;-74
2023/07/07 08:11:16;;;;;;;10.40;5.47;;;23.10;99.90;;;;;;4993862;28;20053;-74
2023/07/07 08:13:42;;;;;;;11.90;5.57;;;23.00;99.90;;;;;;4993803;28;20125;-74
2023/07/07 08:16:12;;;;;;;9.00;5.53;;;23.00;99.90;;;;;;4993973;28;20137;-74
2023/07/07 08:18:39;;;;;;;9.80;5.85;;;22.90;99.90;;;;;;5011294;28;20042;-74
2023/07/07 08:21:05;;;;;;;8.77;5.20;;;23.00;99.90;;;;;;4994120;28;20046;-74
2023/07/07 08:23:32;;;;;;;12.00;6.15;;;23.10;99.90;;;;;;4993906;28;20042;-74
2023/07/07 08:25:59;;;;;;;9.32;5.55;;;22.80;99.90;;;;;;4993575;28;20088;-74
2023/07/07 08:28:34;;;;;;;10.40;5.40;;;23.20;99.90;;;;;;5090765;27;20405;-84
2023/07/07 08:30:59;;;;;;;9.18;5.28;;;23.40;99.90;;;;;;5089577;28;20385;-81
2023/07/07 08:33:25;;;;;;;7.95;5.18;;;23.60;99.90;;;;;;5123724;28;20082;-82
2023/07/07 08:35:51;;;;;;;9.00;4.85;;;23.80;99.90;;;;;;5089670;28;20040;-82
2023/07/07 08:38:16;;;;;;;8.57;4.68;;;24.00;99.90;;;;;;5085358;28;20446;-74
2023/07/07 08:40:51;;;;;;;11.38;4.47;;;24.00;99.90;;;;;;5090794;28;20052;-83
2023/07/07 08:43:18;;;;;;;8.70;4.57;;;24.10;99.90;;;;;;5089431;28;20484;-82
2023/07/07 08:46:02;;;;;;;8.02;4.72;;;24.30;99.90;;;;;;5089423;28;20480;-84
2023/07/07 08:48:33;;;;;;;8.65;4.25;;;24.40;99.90;;;;;;5072962;28;20055;-83
2023/07/07 08:51:04;;;;;;;14.57;5.53;;;24.60;99.90;;;;;;5089301;28;20123;-84
2023/07/07 08:53:58;;;;;;;10.75;5.78;;;24.60;99.90;;;;;;5089514;28;20044;-82
2023/07/07 08:57:25;;;;;;;9.82;4.43;;;24.70;99.90;;;;;;5089151;28;20058;-84
2023/07/07 09:00:30;;;;;;;7.78;4.28;;;24.80;99.90;;;;;;5046193;28;20412;-74
2023/07/07 09:03:05;;;;;;;11.15;4.50;;;24.80;99.90;;;;;;5089868;28;20052;-73
2023/07/07 09:05:56;;;;;;;16.55;4.88;;;24.60;99.90;;;;;;5090047;28;20395;-74
2023/07/07 09:08:46;;;;;;;10.93;5.72;;;24.60;99.90;;;;;;5088792;28;20048;-74
2023/07/07 09:11:18;;;;;;;8.85;4.53;;;24.40;99.90;;;;;;5088622;28;20483;-76
2023/07/07 09:13:46;;;;;;;7.67;4.60;;;24.70;99.90;;;;;;5088915;28;20048;-75
2023/07/07 09:16:19;;;;;;;11.77;5.20;;;24.60;99.90;;;;;;5089908;28;20399;-76
2023/07/07 09:18:51;;;;;;;9.15;4.65;;;24.80;99.90;;;;;;5088988;28;20050;-75
2023/07/07 09:21:34;;;;;;;7.38;4.60;;;24.90;99.90;;;;;;5088628;28;20044;-76
2023/07/07 09:24:09;;;;;;;6.05;4.05;;;24.60;99.90;;;;;;5088844;28;20399;-76
2023/07/07 09:26:36;;;;;;;7.32;4.90;;;24.80;99.90;;;;;;5089447;28;20441;-76
2023/07/07 09:29:07;;;;;;;7.35;3.63;;;25.00;99.90;;;;;;5090030;28;20049;-76
2023/07/07 09:31:43;;;;;;;8.32;4.53;;;25.10;99.90;;;;;;5088613;28;20072;-76
2023/07/07 09:34:11;;;;;;;7.20;4.13;;;25.20;99.90;;;;;;5089887;28;20071;-76
2023/07/07 09:37:01;;;;;;;6.47;4.05;;;25.30;99.90;;;;;;5122279;28;20073;-76
2023/07/07 09:39:37;;;;;;;7.45;3.75;;;25.40;99.90;;;;;;5078520;28;20049;-76
2023/07/07 09:42:28;;;;;;;7.38;4.00;;;25.50;99.90;;;;;;5074979;28;20124;-75
2023/07/07 09:45:12;;;;;;;6.10;3.60;;;25.40;99.90;;;;;;5075883;28;20049;-76
2023/07/07 09:47:47;;;;;;;7.68;3.63;;;25.60;99.90;;;;;;5074621;28;20044;-76
2023/07/07 09:50:18;;;;;;;5.70;3.47;;;25.70;99.90;;;;;;5074886;28;20041;-75
2023/07/07 09:52:46;;;;;;;5.65;3.60;;;25.70;99.90;;;;;;5074736;28;20048;-75
2023/07/07 09:55:21;;;;;;;6.75;3.60;;;25.60;99.90;;;;;;5074371;28;20044;-76
2023/07/07 09:57:59;;;;;;;16.25;3.70;;;25.80;99.90;;;;;;5074454;28;20044;-75
2023/07/07 10:00:27;;;;;;;8.18;3.50;;;25.90;99.90;;;;;;5074418;28;20491;-75
2023/07/07 10:02:54;;;;;;;9.60;3.45;;;25.80;99.90;;;;;;5074249;28;20407;-74
2023/07/07 10:05:25;;;;;;;7.10;3.03;;;25.90;99.90;;;;;;5074340;28;20052;-79
2023/07/07 10:07:52;;;;;;;8.30;3.35;;;25.90;99.90;;;;;;5075350;28;20060;-78
2023/07/07 10:10:18;;;;;;;7.03;3.20;;;26.00;99.90;;;;;;5074167;28;20045;-78
2023/07/07 10:12:45;;;;;;;9.55;3.45;;;26.20;99.90;;;;;;5074083;28;20110;-80
2023/07/07 10:15:46;;;;;;;7.38;3.50;;;26.20;99.90;;;;;;5074084;28;20434;-75
2023/07/07 10:18:24;;;;;;;6.05;3.30;;;26.30;99.90;;;;;;5047942;28;20056;-74
2023/07/07 10:20:51;;;;;;;6.38;3.25;;;26.20;99.90;;;;;;5044770;28;21596;-77
2023/07/07 10:23:17;;;;;;;6.93;3.22;;;26.20;99.90;;;;;;5058759;28;20045;-76
2023/07/07 10:25:44;;;;;;;8.23;3.75;;;26.50;99.90;;;;;;5073123;28;20048;-76
2023/07/07 10:28:14;;;;;;;5.75;3.13;;;26.40;99.90;;;;;;5067368;28;20101;-76
2023/07/07 10:30:41;;;;;;;5.82;3.20;;;26.50;99.90;;;;;;5077353;28;20045;-76
2023/07/07 10:33:20;;;;;;;8.07;3.70;;;26.60;99.80;;;;;;5065047;28;20056;-75
2023/07/07 10:35:45;;;;;;;8.57;3.08;;;26.60;99.90;;;;;;5073545;28;20514;-76
2023/07/07 10:38:11;;;;;;;8.88;3.78;;;26.60;99.50;;;;;;5074851;28;20048;-76
2023/07/07 10:40:41;;;;;;;8.57;4.28;;;26.70;99.90;;;;;;5073909;28;20045;-76
2023/07/07 10:43:11;;;;;;;5.18;3.38;;;26.70;99.90;;;;;;5074744;28;20499;-77
2023/07/07 10:45:37;;;;;;;6.53;3.30;;;26.80;99.90;;;;;;5075049;28;20114;-77
2023/07/07 10:48:04;;;;;;;7.15;3.65;;;26.80;98.50;;;;;;5074874;28;20080;-76
2023/07/07 10:50:39;;;;;;;9.50;3.65;;;26.70;97.30;;;;;;5072726;28;20045;-76
2023/07/07 10:53:27;;;;;;;7.97;3.65;;;26.70;97.70;;;;;;5074442;28;20605;-77
2023/07/07 10:56:04;;;;;;;5.28;2.92;;;26.80;99.90;;;;;;5053303;28;20054;-77
2023/07/07 10:58:59;;;;;;;9.10;3.50;;;27.00;99.90;;;;;;5073313;28;20041;-77
2023/07/07 11:02:03;;;;;;;7.43;3.50;;;26.90;97.80;;;;;;5073404;28;20509;-76
2023/07/07 11:04:42;;;;;;;6.75;3.47;;;27.20;98.60;;;;;;5072905;28;20056;-78
2023/07/07 11:07:39;;;;;;;8.43;3.28;;;26.70;98.30;;;;;;5073018;28;20049;-77
2023/07/07 11:10:11;;;;;;;6.50;3.53;;;26.80;97.70;;;;;;5074390;28;20067;-78
2023/07/07 11:12:53;;;;;;;8.80;3.83;;;26.90;99.60;;;;;;5073189;28;20048;-77
2023/07/07 11:15:27;;;;;;;8.82;3.65;;;27.00;98.00;;;;;;5107433;28;20109;-77
2023/07/07 11:18:01;;;;;;;7.38;3.53;;;26.90;98.80;;;;;;5073128;28;20106;-77
2023/07/07 11:20:48;;;;;;;6.97;3.65;;;27.20;98.80;;;;;;5073145;28;20074;-77
2023/07/07 11:23:40;;;;;;;6.60;3.67;;;27.00;96.60;;;;;;5074206;28;20127;-77
2023/07/07 11:26:12;;;;;;;10.57;3.58;;;27.00;98.20;;;;;;5056986;28;20061;-77
2023/07/07 11:28:50;;;;;;;7.13;3.00;;;27.40;98.80;;;;;;5072729;28;20131;-77
2023/07/07 11:32:08;;;;;;;;;;;;;;;;;;;;;
2023/07/07 11:35:09;;;;;;;7.40;3.30;;;27.20;99.30;;;;;;5056005;28;20442;-77
2023/07/07 11:37:56;;;;;;;9.18;3.90;;;27.30;98.80;;;;;;5073905;28;20055;-77
2023/07/07 11:40:43;;;;;;;8.10;3.50;;;27.40;98.10;;;;;;5073567;28;20135;-76
2023/07/07 11:43:19;;;;;;;8.27;3.70;;;27.60;96.60;;;;;;5072665;28;20096;-76
2023/07/07 11:46:11;;;;;;;6.80;3.78;;;27.80;98.50;;;;;;5073478;28;20105;-77
2023/07/07 11:48:52;;;;;;;;;;;27.50;96.40;;;;;;5074021;28;20545;-76
2023/07/07 11:51:52;;;;;;;5.65;3.38;;;27.50;96.50;;;;;;5072238;28;19926;-76
2023/07/07 11:54:48;;;;;;;7.25;3.60;;;27.50;97.20;;;;;;5038307;28;20507;-76
2023/07/07 11:57:39;;;;;;;8.88;4.00;;;27.70;98.00;;;;;;5072172;28;20053;-77
2023/07/07 12:00:38;;;;;;;6.38;3.45;;;27.90;98.60;;;;;;5052726;28;20583;-78
2023/07/07 12:03:33;;;;;;;6.47;3.20;;;27.90;97.50;;;;;;5050723;28;20052;-76
2023/07/07 12:06:02;;;;;;;6.50;3.55;;;28.00;98.10;;;;;;5063187;28;20056;-77
2023/07/07 12:08:41;;;;;;;7.47;3.88;;;28.00;98.10;;;;;;5051692;28;20060;-76
2023/07/07 12:11:09;;;;;;;6.43;3.47;;;28.10;97.90;;;;;;5057609;28;20150;-76
2023/07/07 12:13:50;;;;;;;6.90;3.50;;;28.00;97.40;;;;;;5054239;28;20051;-76
2023/07/07 12:16:21;;;;;;;7.35;3.65;;;28.00;96.80;;;;;;5070507;28;20036;-77
2023/07/07 12:18:53;;;;;;;6.72;3.60;;;28.10;96.20;;;;;;5070623;28;20086;-76
2023/07/07 12:21:31;;;;;;;6.65;3.60;;;28.10;97.30;;;;;;5071957;28;20561;-77
2023/07/07 12:24:04;;;;;;;8.05;3.72;;;27.90;95.60;;;;;;5072177;28;20044;-77
2023/07/07 12:26:34;;;;;;;8.27;3.45;;;28.10;97.50;;;;;;5071923;28;20106;-77
2023/07/07 12:29:02;;;;;;;5.93;3.58;;;28.20;97.50;;;;;;5073163;28;20049;-77
2023/07/07 12:31:29;;;;;;;8.73;3.88;;;28.30;96.70;;;;;;5072008;28;20488;-78
2023/07/07 12:33:55;;;;;;;7.20;3.75;;;28.00;95.40;;;;;;5071748;28;20048;-76
2023/07/07 12:36:26;;;;;;;6.05;3.60;;;28.10;96.90;;;;;;5071645;28;20123;-77
2023/07/07 12:38:56;;;;;;;8.23;3.47;;;28.20;96.60;;;;;;5070368;28;20066;-75
2023/07/07 12:41:25;;;;;;;7.88;3.97;;;28.40;98.00;;;;;;5072850;28;20045;-78
2023/07/07 12:44:01;;;;;;;7.53;4.05;;;28.10;95.60;;;;;;5070964;28;20052;-77
2023/07/07 12:46:29;;;;;;;9.27;3.92;;;28.00;96.90;;;;;;5105939;28;20049;-77
2023/07/07 12:48:58;;;;;;;9.30;4.13;;;27.70;94.50;;;;;;5072040;28;20092;-77
2023/07/07 12:51:27;;;;;;;8.32;3.95;;;27.40;95.40;;;;;;5073047;28;20040;-76
2023/07/07 12:53:54;;;;;;;7.38;4.68;;;27.50;96.10;;;;;;5071774;28;20128;-77
2023/07/07 12:56:30;;;;;;;8.15;3.78;;;27.50;95.20;;;;;;5072914;28;20109;-77
2023/07/07 12:59:20;;;;;;;9.15;4.18;;;27.80;95.60;;;;;;5072932;28;20391;-76